Time;durP1;ratioP1;P1;durP2;ratioP2;P2;SDS_P1;SDS_P2;PMS_P1;PMS_P2;Temp;Humidity;BMP_temperature;BMP_pressure;BME280_temperature;BME280_humidity;BME280_pressure;Samples;Min_cycle;Max_cycle;Signal;HPM_P1;HPM_P2
2021/12/01 00:02:07;;;;;;;16.80;8.20;;;7.70;99.90;;;;;;5074359;28;20104;-43
2021/12/01 00:04:33;;;;;;;20.50;9.05;;;7.70;99.90;;;;;;5108621;28;20040;-44
2021/12/01 00:06:59;;;;;;;26.58;9.75;;;7.80;99.90;;;;;;5090633;28;20079;-43
2021/12/01 00:09:25;;;;;;;22.08;8.63;;;7.80;99.90;;;;;;5078190;28;20044;-44
2021/12/01 00:11:51;;;;;;;22.90;8.90;;;7.90;99.90;;;;;;5058190;28;20039;-43
2021/12/01 00:14:17;;;;;;;22.77;9.55;;;7.90;99.90;;;;;;5105365;28;20058;-43
2021/12/01 00:16:43;;;;;;;23.23;9.27;;;8.00;99.90;;;;;;5083968;28;20044;-43
2021/12/01 00:19:08;;;;;;;27.10;9.55;;;8.00;99.90;;;;;;5098881;28;20512;-44
2021/12/01 00:21:34;;;;;;;27.80;9.60;;;8.00;99.90;;;;;;5066732;28;20052;-43
2021/12/01 00:24:00;;;;;;;23.98;10.82;;;8.10;99.90;;;;;;5077140;28;20048;-44
2021/12/01 00:26:26;;;;;;;29.55;10.55;;;8.10;99.90;;;;;;5070959;28;20119;-43
2021/12/01 00:28:53;;;;;;;26.17;10.67;;;8.10;99.90;;;;;;5060868;28;20116;-43
2021/12/01 00:31:19;;;;;;;23.00;10.15;;;8.20;99.90;;;;;;5066603;28;20119;-43
2021/12/01 00:33:45;;;;;;;29.15;11.70;;;8.20;99.90;;;;;;5068066;28;20047;-43
2021/12/01 00:36:13;;;;;;;30.48;12.90;;;8.20;99.90;;;;;;5073015;28;20056;-43
2021/12/01 00:38:42;;;;;;;30.73;13.05;;;8.30;99.90;;;;;;5073505;28;20040;-43
2021/12/01 00:41:09;;;;;;;30.20;13.90;;;8.30;99.90;;;;;;5075272;28;20044;-44
2021/12/01 00:43:39;;;;;;;33.55;14.75;;;8.40;99.90;;;;;;5071287;28;20663;-43
2021/12/01 00:46:35;;;;;;;37.65;16.23;;;8.40;99.90;;;;;;5072600;28;20119;-42
2021/12/01 00:49:10;;;;;;;37.85;16.45;;;8.50;99.90;;;;;;5069406;28;20048;-43
2021/12/01 00:51:36;;;;;;;36.42;16.85;;;8.50;99.90;;;;;;5089213;28;20101;-43
2021/12/01 00:54:02;;;;;;;39.58;17.20;;;8.50;99.90;;;;;;5081367;28;20047;-43
2021/12/01 00:56:28;;;;;;;38.33;18.47;;;8.60;99.90;;;;;;5077855;28;20569;-43
2021/12/01 00:58:54;;;;;;;43.35;19.42;;;8.60;99.90;;;;;;5083563;28;20287;-44
2021/12/01 01:01:20;;;;;;;38.17;18.67;;;8.60;99.90;;;;;;5075217;28;20047;-43
2021/12/01 01:03:49;;;;;;;44.22;18.70;;;8.70;99.90;;;;;;5079725;28;20127;-43
2021/12/01 01:06:15;;;;;;;39.38;19.13;;;8.70;99.90;;;;;;5075247;28;20181;-43
2021/12/01 01:08:42;;;;;;;42.92;19.17;;;8.70;99.90;;;;;;5071066;28;20425;-45
2021/12/01 01:11:10;;;;;;;40.40;18.70;;;8.70;99.90;;;;;;5054034;28;20473;-43
2021/12/01 01:18:51;;;;;;;32.55;17.13;;;8.70;99.90;;;;;;5069423;28;20174;-43
2021/12/01 01:21:18;;;;;;;34.72;17.20;;;8.80;99.90;;;;;;5092102;28;20413;-43
2021/12/01 01:23:44;;;;;;;33.20;16.67;;;8.80;99.90;;;;;;5076701;28;20609;-44
2021/12/01 01:26:13;;;;;;;38.87;17.43;;;8.80;99.90;;;;;;5093230;28;20044;-44
2021/12/01 01:28:41;;;;;;;35.55;16.10;;;8.80;99.90;;;;;;5070404;28;20040;-44
2021/12/01 01:31:07;;;;;;;43.60;17.67;;;8.80;99.90;;;;;;5098911;28;20501;-44
2021/12/01 01:33:33;;;;;;;29.90;16.10;;;8.80;99.90;;;;;;5098090;28;20036;-45
2021/12/01 01:35:59;;;;;;;31.55;15.98;;;8.80;99.90;;;;;;5080967;28;20039;-43
2021/12/01 01:38:26;;;;;;;36.90;15.48;;;8.80;99.90;;;;;;5079647;28;20048;-44
2021/12/01 01:40:52;;;;;;;26.88;14.20;;;8.80;99.90;;;;;;5082913;28;20039;-45
2021/12/01 01:43:18;;;;;;;31.20;15.50;;;8.80;99.90;;;;;;5104940;28;20036;-44
2021/12/01 01:45:44;;;;;;;29.55;14.63;;;8.80;99.90;;;;;;5076463;28;20044;-44
2021/12/01 01:48:13;;;;;;;28.65;12.68;;;8.80;99.90;;;;;;5079966;28;20048;-44
2021/12/01 01:50:42;;;;;;;32.45;13.35;;;8.90;99.90;;;;;;5095907;28;20044;-44
2021/12/01 01:53:09;;;;;;;21.15;11.27;;;8.80;99.90;;;;;;5056369;28;20057;-44
2021/12/01 01:55:38;;;;;;;25.48;11.40;;;8.90;99.90;;;;;;5073258;28;20046;-44
2021/12/01 01:58:04;;;;;;;30.75;11.63;;;8.90;99.90;;;;;;5075097;28;20050;-44
2021/12/01 02:00:30;;;;;;;21.90;11.00;;;8.90;99.90;;;;;;5111630;28;20051;-44
2021/12/01 02:02:59;;;;;;;26.77;10.70;;;8.90;99.90;;;;;;5085219;28;20079;-44
2021/12/01 02:05:25;;;;;;;22.88;9.93;;;9.00;99.90;;;;;;5072436;28;20050;-45
2021/12/01 02:07:53;;;;;;;19.02;8.65;;;8.90;99.90;;;;;;5091288;28;20044;-44
2021/12/01 02:10:19;;;;;;;20.95;8.18;;;9.00;99.90;;;;;;5065671;28;20381;-45
2021/12/01 02:12:46;;;;;;;19.45;7.82;;;9.00;99.90;;;;;;5097802;28;20055;-44
2021/12/01 02:15:12;;;;;;;19.37;7.30;;;9.00;99.90;;;;;;5092927;28;20094;-44
2021/12/01 02:17:38;;;;;;;15.48;6.78;;;8.90;99.90;;;;;;5090198;28;21236;-45
2021/12/01 02:20:20;;;;;;;11.27;5.50;;;9.00;99.90;;;;;;5056287;28;20044;-47
2021/12/01 02:22:46;;;;;;;16.23;5.65;;;9.00;99.90;;;;;;5068999;28;20065;-44
2021/12/01 02:25:12;;;;;;;12.32;5.05;;;9.00;99.90;;;;;;5070351;28;20049;-45
2021/12/01 02:27:38;;;;;;;12.40;4.60;;;9.00;99.90;;;;;;5072247;28;20127;-45
2021/12/01 02:30:04;;;;;;;15.02;4.25;;;9.00;99.90;;;;;;5079095;28;20048;-46
2021/12/01 02:32:30;;;;;;;8.90;3.53;;;9.00;99.90;;;;;;5057913;28;20059;-45
2021/12/01 02:34:56;;;;;;;9.27;2.95;;;9.00;99.90;;;;;;5078784;28;20682;-45
2021/12/01 02:37:22;;;;;;;6.32;2.90;;;9.00;99.90;;;;;;5057693;28;20665;-44
2021/12/01 02:39:52;;;;;;;9.45;2.63;;;9.00;99.90;;;;;;5078399;28;20474;-44
2021/12/01 02:42:20;;;;;;;13.27;2.13;;;9.00;99.90;;;;;;5068645;28;20067;-44
2021/12/01 02:44:47;;;;;;;6.60;2.00;;;9.00;99.90;;;;;;5070507;28;20086;-45
2021/12/01 02:47:14;;;;;;;3.95;1.40;;;9.10;99.90;;;;;;5068481;28;20560;-43
2021/12/01 02:49:40;;;;;;;3.45;1.20;;;;;;;;;;5083391;28;20055;-45
2021/12/01 02:52:06;;;;;;;5.53;1.23;;;9.10;99.90;;;;;;5068879;28;20086;-45
2021/12/01 02:54:32;;;;;;;4.82;1.38;;;9.10;99.90;;;;;;5070056;28;20052;-44
2021/12/01 02:57:00;;;;;;;6.72;1.80;;;9.10;99.90;;;;;;5091120;28;20036;-45
2021/12/01 02:59:26;;;;;;;6.05;1.58;;;9.10;99.90;;;;;;5059058;28;20119;-45
2021/12/01 03:01:55;;;;;;;5.95;1.75;;;9.10;99.90;;;;;;5057711;28;20040;-44
2021/12/01 03:04:22;;;;;;;13.27;1.58;;;9.10;99.90;;;;;;5076658;28;20036;-47
2021/12/01 03:06:49;;;;;;;11.18;1.98;;;9.10;99.90;;;;;;5038256;28;20051;-46
2021/12/01 03:09:16;;;;;;;;;;;9.10;99.90;;;;;;5051855;28;20178;-44
2021/12/01 03:11:43;;;;;;;4.93;1.35;;;9.10;99.90;;;;;;5067724;28;19916;-45
2021/12/01 03:14:11;;;;;;;5.30;1.40;;;9.10;99.90;;;;;;5069343;28;20067;-43
2021/12/01 03:16:39;;;;;;;8.00;1.52;;;9.10;99.90;;;;;;5075714;28;20531;-45
2021/12/01 03:19:05;;;;;;;;;;;9.20;99.90;;;;;;5072260;28;20125;-45
2021/12/01 03:21:34;;;;;;;7.60;1.13;;;9.20;99.90;;;;;;5070862;28;19916;-45
2021/12/01 03:24:00;;;;;;;5.20;1.25;;;9.20;99.90;;;;;;5076018;28;20638;-44
2021/12/01 03:26:29;;;;;;;8.55;1.60;;;9.20;99.90;;;;;;5071270;28;20100;-45
2021/12/01 03:28:55;;;;;;;6.20;1.20;;;9.20;99.90;;;;;;5069975;28;20124;-44
2021/12/01 03:31:21;;;;;;;6.97;1.33;;;9.20;99.90;;;;;;5098636;28;20039;-45
2021/12/01 03:33:47;;;;;;;5.32;1.02;;;9.20;99.90;;;;;;5094498;28;20117;-44
2021/12/01 03:36:13;;;;;;;3.90;1.02;;;9.30;99.90;;;;;;5071550;28;20090;-44
2021/12/01 03:38:39;;;;;;;5.43;1.23;;;9.30;99.90;;;;;;5087818;28;20441;-44
2021/12/01 03:41:05;;;;;;;6.93;1.35;;;9.30;99.90;;;;;;5070935;28;20089;-44
2021/12/01 03:43:31;;;;;;;6.38;1.20;;;9.30;99.90;;;;;;5041010;28;20044;-44
2021/12/01 03:45:57;;;;;;;8.32;1.45;;;9.30;99.90;;;;;;5098575;28;20046;-44
2021/12/01 03:48:24;;;;;;;7.10;1.30;;;9.20;99.90;;;;;;5093834;28;20046;-45
2021/12/01 03:50:51;;;;;;;6.82;1.60;;;9.30;99.90;;;;;;5089434;28;20732;-44
2021/12/01 03:53:21;;;;;;;8.68;1.70;;;9.30;99.90;;;;;;5092063;28;20040;-45
2021/12/01 03:55:47;;;;;;;13.07;2.00;;;9.30;99.90;;;;;;5100033;28;20113;-45
2021/12/01 03:58:13;;;;;;;8.05;1.50;;;9.30;99.90;;;;;;5053818;28;20537;-44
2021/12/01 04:00:40;;;;;;;8.35;1.63;;;9.30;99.90;;;;;;5089306;28;20044;-44
2021/12/01 04:03:06;;;;;;;10.18;2.08;;;9.30;99.90;;;;;;5057549;28;20096;-48
2021/12/01 04:05:33;;;;;;;11.35;1.65;;;9.30;99.90;;;;;;5037903;28;20113;-45
2021/12/01 04:08:01;;;;;;;12.07;1.60;;;9.20;99.90;;;;;;5054190;28;20040;-45
2021/12/01 04:10:29;;;;;;;11.77;2.20;;;9.20;99.90;;;;;;5081491;28;20039;-44
2021/12/01 04:12:55;;;;;;;12.23;1.75;;;9.20;99.90;;;;;;5092143;28;20476;-44
2021/12/01 04:15:21;;;;;;;10.68;2.15;;;9.20;99.90;;;;;;5054342;28;20127;-45
2021/12/01 04:17:47;;;;;;;15.80;3.13;;;9.20;99.90;;;;;;5067271;28;20041;-44
2021/12/01 04:20:16;;;;;;;11.50;2.33;;;9.20;99.90;;;;;;5080221;28;20123;-45
2021/12/01 04:22:44;;;;;;;9.52;2.58;;;9.20;99.90;;;;;;5084180;28;20538;-45
2021/12/01 04:25:10;;;;;;;11.45;2.20;;;9.20;99.90;;;;;;5070987;28;20053;-43
2021/12/01 04:27:37;;;;;;;10.18;2.08;;;9.20;99.90;;;;;;5082375;28;20542;-43
2021/12/01 04:30:06;;;;;;;9.57;1.98;;;9.20;99.90;;;;;;5078912;28;20044;-44
2021/12/01 04:32:32;;;;;;;17.77;2.30;;;9.20;99.90;;;;;;5071057;28;20038;-44
2021/12/01 04:34:58;;;;;;;11.98;1.95;;;9.20;99.90;;;;;;5101120;28;20389;-44
2021/12/01 04:37:25;;;;;;;11.93;2.17;;;9.20;99.90;;;;;;5069324;28;20040;-44
2021/12/01 04:39:53;;;;;;;6.38;1.15;;;9.20;99.90;;;;;;5070548;28;20462;-44
2021/12/01 04:42:19;;;;;;;7.55;1.95;;;9.20;99.90;;;;;;5054089;28;20044;-44
2021/12/01 04:44:46;;;;;;;13.43;1.48;;;9.20;99.90;;;;;;5053521;28;20052;-43
2021/12/01 04:47:17;;;;;;;9.90;1.55;;;9.20;99.90;;;;;;5108076;28;20388;-43
2021/12/01 04:49:43;;;;;;;6.72;1.60;;;9.20;99.90;;;;;;5096211;28;20040;-43
2021/12/01 04:52:11;;;;;;;6.65;1.42;;;9.20;99.90;;;;;;5064347;28;20040;-43
2021/12/01 04:54:39;;;;;;;5.63;1.27;;;9.20;99.90;;;;;;5085750;28;20137;-43
2021/12/01 04:57:05;;;;;;;;;;;9.20;99.90;;;;;;5079948;28;20115;-46
2021/12/01 04:59:31;;;;;;;7.63;1.23;;;9.10;99.90;;;;;;5074184;28;19984;-44
2021/12/01 05:02:02;;;;;;;3.10;1.43;;;9.20;99.90;;;;;;5074275;28;20040;-45
2021/12/01 05:04:29;;;;;;;5.30;1.30;;;9.10;99.90;;;;;;5071360;28;20277;-44
2021/12/01 05:06:55;;;;;;;5.30;1.60;;;9.20;99.90;;;;;;5074303;28;20050;-44
2021/12/01 05:09:21;;;;;;;5.20;1.60;;;9.20;99.90;;;;;;5105841;28;20043;-43
2021/12/01 05:11:47;;;;;;;4.65;1.52;;;9.20;99.90;;;;;;5092618;28;20649;-45
2021/12/01 05:14:14;;;;;;;4.15;1.55;;;9.20;99.90;;;;;;5057210;28;20051;-46
2021/12/01 05:16:41;;;;;;;4.10;1.80;;;9.20;99.90;;;;;;5092567;28;20036;-43
2021/12/01 05:19:10;;;;;;;5.13;2.05;;;9.10;99.90;;;;;;5090362;28;20493;-45
2021/12/01 05:21:36;;;;;;;2.95;1.35;;;9.10;99.90;;;;;;5063312;28;20498;-44
2021/12/01 05:24:02;;;;;;;2.90;1.30;;;9.10;99.90;;;;;;5073749;28;20643;-48
2021/12/01 05:26:28;;;;;;;2.20;1.20;;;9.10;99.90;;;;;;5080006;28;20040;-43
2021/12/01 05:28:54;;;;;;;3.40;1.30;;;9.10;99.90;;;;;;5083821;28;20048;-45
2021/12/01 05:31:20;;;;;;;3.30;1.00;;;9.10;99.90;;;;;;5079846;28;20044;-44
2021/12/01 05:33:46;;;;;;;1.60;0.70;;;9.10;99.90;;;;;;5073862;28;20036;-45
2021/12/01 05:36:13;;;;;;;1.08;0.68;;;9.10;99.90;;;;;;5099996;28;20549;-46
2021/12/01 05:38:39;;;;;;;2.53;0.60;;;9.10;99.90;;;;;;5077773;28;20051;-47
2021/12/01 05:41:05;;;;;;;1.83;0.75;;;9.00;99.90;;;;;;5082081;28;20045;-46
2021/12/01 05:43:31;;;;;;;1.60;0.60;;;9.00;99.90;;;;;;5096131;28;20044;-44
2021/12/01 05:45:57;;;;;;;1.35;0.60;;;9.00;99.90;;;;;;5057115;28;20046;-45
2021/12/01 05:48:24;;;;;;;1.73;0.80;;;9.00;99.90;;;;;;5073312;28;20186;-45
2021/12/01 05:50:49;;;;;;;1.83;0.90;;;9.00;99.90;;;;;;5073603;28;20644;-45
2021/12/01 05:53:15;;;;;;;1.77;0.63;;;9.00;99.90;;;;;;5090459;28;20109;-44
2021/12/01 05:55:41;;;;;;;3.13;1.08;;;9.00;99.90;;;;;;5091550;28;20537;-45
2021/12/01 05:58:07;;;;;;;1.23;0.82;;;9.00;99.90;;;;;;5073110;28;20167;-47
2021/12/01 06:00:34;;;;;;;2.33;1.25;;;9.00;99.90;;;;;;5064457;28;20076;-46
2021/12/01 06:03:00;;;;;;;4.47;1.10;;;8.90;99.90;;;;;;5068902;28;20450;-45
2021/12/01 06:05:27;;;;;;;2.80;1.20;;;8.90;99.90;;;;;;5055875;28;20032;-45
2021/12/01 06:07:53;;;;;;;2.58;1.15;;;8.90;99.90;;;;;;5101345;28;20150;-45
2021/12/01 06:10:19;;;;;;;1.85;1.20;;;8.90;99.90;;;;;;5082167;28;20036;-45
2021/12/01 06:12:47;;;;;;;2.00;1.30;;;8.90;99.90;;;;;;5057196;28;20472;-45
2021/12/01 06:15:17;;;;;;;2.53;1.20;;;8.90;99.90;;;;;;5072110;28;20059;-45
2021/12/01 06:17:44;;;;;;;2.17;1.30;;;8.80;99.90;;;;;;5056186;28;20371;-45
2021/12/01 06:20:11;;;;;;;2.20;1.30;;;8.90;99.90;;;;;;5080643;28;20391;-47
2021/12/01 06:22:42;;;;;;;1.98;1.10;;;8.80;99.90;;;;;;5106296;28;20528;-46
2021/12/01 06:25:08;;;;;;;2.25;1.15;;;8.80;99.90;;;;;;5067546;28;20469;-45
2021/12/01 06:27:35;;;;;;;2.28;1.40;;;8.80;99.90;;;;;;5089259;28;20040;-46
2021/12/01 06:30:03;;;;;;;2.55;1.40;;;8.80;99.90;;;;;;5053414;28;20040;-48
2021/12/01 06:32:29;;;;;;;6.80;1.40;;;8.80;99.90;;;;;;5089893;28;20036;-48
2021/12/01 06:34:55;;;;;;;3.33;1.38;;;8.80;99.90;;;;;;5090858;28;20350;-47
2021/12/01 06:37:21;;;;;;;2.60;1.33;;;8.70;99.90;;;;;;5035067;28;20382;-47
2021/12/01 06:39:47;;;;;;;3.17;1.40;;;8.80;99.90;;;;;;5087833;28;20040;-46
2021/12/01 06:42:13;;;;;;;1.98;1.20;;;8.70;99.90;;;;;;5088003;28;20284;-46
2021/12/01 06:44:39;;;;;;;2.05;1.30;;;8.70;99.90;;;;;;5086072;28;20048;-45
2021/12/01 06:47:05;;;;;;;3.05;1.30;;;8.70;99.90;;;;;;5089387;28;20619;-44
2021/12/01 06:49:31;;;;;;;1.77;1.30;;;8.70;99.90;;;;;;5091384;28;20036;-45
2021/12/01 06:51:57;;;;;;;1.88;1.20;;;8.60;99.90;;;;;;5092295;28;20043;-45
2021/12/01 06:54:23;;;;;;;2.30;1.50;;;8.60;99.90;;;;;;5091841;28;20040;-44
2021/12/01 06:56:49;;;;;;;1.70;1.23;;;8.60;99.90;;;;;;5080856;28;20419;-47
2021/12/01 06:59:15;;;;;;;3.28;1.70;;;8.60;99.90;;;;;;5088432;28;20108;-45
2021/12/01 07:01:41;;;;;;;2.63;1.52;;;8.60;99.90;;;;;;5087326;28;20051;-44
2021/12/01 07:04:07;;;;;;;1.95;1.33;;;8.60;99.90;;;;;;5069158;28;20470;-45
2021/12/01 07:06:33;;;;;;;2.85;1.42;;;8.60;99.90;;;;;;5090983;28;20120;-46
2021/12/01 07:09:00;;;;;;;2.22;1.35;;;8.60;99.90;;;;;;5071026;28;20039;-44
2021/12/01 07:11:27;;;;;;;2.03;1.25;;;8.60;99.90;;;;;;5070496;28;20039;-46
2021/12/01 07:13:53;;;;;;;2.13;1.20;;;8.50;99.90;;;;;;5089609;28;20044;-45
2021/12/01 07:16:19;;;;;;;2.05;1.42;;;8.60;99.90;;;;;;5059627;28;20169;-45
2021/12/01 07:18:45;;;;;;;4.85;1.65;;;8.50;99.90;;;;;;5075804;28;20036;-44
2021/12/01 07:21:11;;;;;;;2.20;1.23;;;8.50;99.90;;;;;;5071983;28;20458;-44
2021/12/01 07:23:38;;;;;;;3.35;1.27;;;8.50;99.90;;;;;;5071223;28;20056;-44
2021/12/01 07:26:05;;;;;;;4.30;1.40;;;8.50;99.90;;;;;;5088571;28;20056;-45
2021/12/01 07:28:31;;;;;;;2.58;1.25;;;8.50;99.90;;;;;;5091942;28;20611;-47
2021/12/01 07:30:58;;;;;;;4.13;1.60;;;8.50;99.90;;;;;;5071595;28;20338;-45
2021/12/01 07:33:24;;;;;;;3.30;1.60;;;8.50;99.90;;;;;;5101596;28;20079;-45
2021/12/01 07:35:51;;;;;;;4.95;1.42;;;8.50;99.90;;;;;;5061799;28;20132;-44
2021/12/01 07:38:17;;;;;;;3.80;2.13;;;8.60;99.90;;;;;;5067797;28;20047;-44
2021/12/01 07:40:43;;;;;;;3.03;1.95;;;8.50;99.90;;;;;;5089881;28;20027;-46
2021/12/01 07:43:10;;;;;;;3.38;1.85;;;8.50;99.90;;;;;;5084532;28;20072;-47
2021/12/01 07:45:36;;;;;;;4.25;2.25;;;8.50;99.90;;;;;;5090212;28;20051;-46
2021/12/01 07:48:02;;;;;;;3.63;1.65;;;8.50;99.90;;;;;;5052127;28;20040;-49
2021/12/01 07:50:28;;;;;;;5.22;1.98;;;8.50;99.90;;;;;;5059736;28;20040;-46
2021/12/01 07:52:54;;;;;;;6.10;2.08;;;8.50;99.90;;;;;;5079403;28;20050;-45
2021/12/01 07:55:21;;;;;;;4.72;1.88;;;8.50;99.90;;;;;;5058000;28;20431;-45
2021/12/01 07:57:46;;;;;;;5.28;2.08;;;8.50;99.90;;;;;;5089877;28;20144;-46
2021/12/01 08:00:14;;;;;;;3.30;2.15;;;8.60;99.90;;;;;;5085148;28;20082;-46
2021/12/01 08:02:40;;;;;;;;;;;8.50;99.90;;;;;;5085361;28;20047;-45
2021/12/01 08:05:07;;;;;;;3.92;2.50;;;8.60;99.90;;;;;;5088973;28;19926;-47
2021/12/01 08:07:36;;;;;;;9.63;2.85;;;8.60;99.90;;;;;;5055061;28;20063;-48
2021/12/01 08:10:05;;;;;;;7.00;3.15;;;8.60;99.90;;;;;;5044922;28;20477;-46
2021/12/01 08:12:35;;;;;;;7.93;2.83;;;8.60;99.90;;;;;;5077739;28;20483;-44
2021/12/01 08:15:02;;;;;;;7.07;2.78;;;8.60;99.90;;;;;;5068273;28;20056;-44
2021/12/01 08:17:28;;;;;;;;;;;8.60;99.90;;;;;;5090781;28;20071;-45
2021/12/01 08:19:57;;;;;;;4.30;2.58;;;8.60;99.90;;;;;;5091780;28;19979;-46
2021/12/01 08:22:27;;;;;;;5.43;2.58;;;8.60;99.90;;;;;;5066208;28;20061;-44
2021/12/01 08:24:54;;;;;;;9.63;2.88;;;8.60;99.90;;;;;;5068344;28;20074;-45
2021/12/01 08:27:21;;;;;;;4.35;2.42;;;8.60;99.90;;;;;;5064969;28;20048;-46
2021/12/01 08:29:47;;;;;;;3.30;2.22;;;8.60;99.90;;;;;;5071924;28;20140;-45
2021/12/01 08:32:13;;;;;;;7.15;2.50;;;8.60;99.90;;;;;;5068786;28;20101;-45
2021/12/01 08:34:40;;;;;;;4.95;2.60;;;8.70;99.90;;;;;;5071929;28;20044;-43
2021/12/01 08:37:08;;;;;;;4.50;2.60;;;8.60;99.90;;;;;;5072754;28;20059;-44
2021/12/01 08:39:35;;;;;;;7.63;2.78;;;8.60;99.90;;;;;;5073039;28;20132;-47
2021/12/01 08:42:01;;;;;;;9.07;2.90;;;8.60;99.90;;;;;;5073010;28;20059;-44
2021/12/01 08:44:27;;;;;;;4.93;3.20;;;8.70;99.90;;;;;;5071487;28;20099;-45
2021/12/01 08:46:54;;;;;;;5.70;2.70;;;8.70;99.90;;;;;;5076101;28;20802;-46
2021/12/01 08:49:20;;;;;;;5.95;2.80;;;8.70;99.90;;;;;;5081788;28;20155;-47
2021/12/01 08:51:46;;;;;;;6.22;1.80;;;8.70;99.90;;;;;;5076302;28;20157;-46
2021/12/01 08:54:13;;;;;;;7.90;1.52;;;8.70;99.90;;;;;;5092550;28;20040;-46
2021/12/01 08:56:42;;;;;;;7.03;1.48;;;8.70;99.90;;;;;;5075608;28;20071;-45
2021/12/01 08:59:08;;;;;;;6.95;1.35;;;8.60;99.90;;;;;;5070875;28;20028;-48
2021/12/01 09:01:36;;;;;;;8.20;1.60;;;8.60;99.90;;;;;;5090075;28;20052;-46
2021/12/01 09:04:02;;;;;;;7.43;1.85;;;8.60;99.90;;;;;;5080938;28;20511;-46
2021/12/01 09:06:30;;;;;;;7.80;1.42;;;8.50;99.90;;;;;;5070651;28;20127;-46
2021/12/01 09:08:56;;;;;;;11.70;2.17;;;8.50;99.90;;;;;;5083534;28;20044;-46
2021/12/01 09:11:22;;;;;;;8.70;1.90;;;8.50;99.90;;;;;;5056998;28;20037;-47
2021/12/01 09:13:48;;;;;;;9.52;1.55;;;8.50;99.90;;;;;;5071023;28;20498;-47
2021/12/01 09:16:14;;;;;;;10.75;1.13;;;8.50;99.90;;;;;;5084995;28;20072;-46
2021/12/01 09:18:40;;;;;;;10.45;1.60;;;8.50;99.90;;;;;;5065544;28;20044;-47
2021/12/01 09:21:06;;;;;;;5.78;1.23;;;8.50;99.90;;;;;;5077155;28;20097;-46
2021/12/01 09:23:33;;;;;;;9.45;1.30;;;8.50;99.90;;;;;;5062912;28;20472;-46
2021/12/01 09:25:59;;;;;;;9.18;1.08;;;8.50;99.90;;;;;;5072098;28;20055;-47
2021/12/01 09:28:26;;;;;;;9.20;1.30;;;8.50;99.90;;;;;;5045878;28;20102;-47
2021/12/01 09:30:54;;;;;;;8.00;1.25;;;8.50;99.90;;;;;;5070322;28;20090;-47
2021/12/01 09:33:20;;;;;;;6.90;1.00;;;8.40;99.90;;;;;;5072401;28;20492;-48
2021/12/01 09:35:47;;;;;;;4.57;0.88;;;8.40;99.90;;;;;;5084950;28;20059;-46
2021/12/01 09:38:16;;;;;;;9.32;1.00;;;8.40;99.90;;;;;;5070847;28;20037;-47
2021/12/01 09:40:46;;;;;;;6.35;1.13;;;8.40;99.90;;;;;;5083372;28;20115;-46
2021/12/01 09:43:13;;;;;;;7.85;1.10;;;8.40;99.90;;;;;;5071916;28;20048;-46
2021/12/01 09:45:40;;;;;;;5.85;0.80;;;8.40;99.90;;;;;;5072079;28;20059;-48
2021/12/01 09:48:06;;;;;;;8.07;0.90;;;8.40;99.90;;;;;;5071784;28;20040;-44
2021/12/01 09:50:33;;;;;;;6.68;0.90;;;8.50;99.90;;;;;;5065651;28;20100;-46
2021/12/01 09:52:59;;;;;;;10.85;2.00;;;8.50;99.90;;;;;;5079463;28;20033;-45
2021/12/01 09:55:25;;;;;;;9.23;1.00;;;8.50;99.90;;;;;;5085182;28;20094;-44
2021/12/01 09:58:02;;;;;;;5.97;0.88;;;8.60;99.90;;;;;;5082429;28;20036;-45
2021/12/01 10:00:29;;;;;;;9.85;0.90;;;8.60;99.90;;;;;;5064598;28;20572;-44
2021/12/01 10:02:55;;;;;;;;;;;8.60;99.90;;;;;;5059521;28;20076;-44
2021/12/01 10:05:46;;;;;;;5.40;0.80;;;8.60;99.90;;;;;;5076748;28;19978;-44
2021/12/01 10:08:24;;;;;;;8.45;1.27;;;8.50;99.90;;;;;;5084881;28;20048;-44
2021/12/01 10:10:51;;;;;;;12.32;2.17;;;8.60;99.90;;;;;;5071661;28;20363;-45
2021/12/01 10:13:31;;;;;;;10.35;1.20;;;8.70;99.90;;;;;;5084897;28;20389;-44
2021/12/01 10:16:01;;;;;;;8.60;1.38;;;8.60;99.90;;;;;;5069742;28;20032;-45
2021/12/01 10:18:29;;;;;;;9.48;1.27;;;8.70;99.90;;;;;;5095112;28;20047;-44
2021/12/01 10:21:06;;;;;;;10.38;1.50;;;8.80;99.90;;;;;;5073459;28;20041;-46
2021/12/01 10:23:33;;;;;;;14.25;1.95;;;8.80;99.90;;;;;;5090432;28;20086;-45
2021/12/01 10:26:16;;;;;;;11.43;1.55;;;8.80;99.90;;;;;;5073383;28;20119;-45
2021/12/01 10:28:48;;;;;;;11.55;2.05;;;8.80;99.90;;;;;;5072154;28;20124;-45
2021/12/01 10:31:15;;;;;;;10.32;2.05;;;8.70;99.90;;;;;;5072016;28;20056;-49
2021/12/01 10:33:42;;;;;;;12.52;1.92;;;8.80;99.90;;;;;;5070143;28;20044;-46
2021/12/01 10:36:09;;;;;;;8.93;1.45;;;8.70;99.90;;;;;;5091410;28;20088;-45
2021/12/01 10:38:39;;;;;;;13.50;2.03;;;8.70;99.90;;;;;;5061038;28;20122;-45
2021/12/01 10:41:11;;;;;;;12.02;1.50;;;8.60;99.90;;;;;;5081721;28;20048;-45
2021/12/01 10:43:48;;;;;;;10.00;2.05;;;8.50;99.90;;;;;;5097851;28;20411;-45
2021/12/01 10:46:16;;;;;;;10.73;1.50;;;8.50;99.90;;;;;;5100509;28;20108;-45
2021/12/01 10:48:45;;;;;;;17.60;1.77;;;8.40;99.90;;;;;;5091137;28;20043;-46
2021/12/01 10:51:30;;;;;;;8.52;1.70;;;8.40;99.90;;;;;;5060719;28;20121;-44
2021/12/01 10:53:56;;;;;;;9.80;1.40;;;8.40;99.90;;;;;;5052597;28;20144;-45
2021/12/01 10:56:22;;;;;;;9.90;1.60;;;8.30;99.90;;;;;;5066753;28;20047;-45
2021/12/01 10:58:48;;;;;;;10.80;1.60;;;8.40;99.90;;;;;;5090674;28;20035;-47
2021/12/01 11:01:20;;;;;;;11.68;1.80;;;8.50;99.90;;;;;;5089212;28;20043;-45
2021/12/01 11:03:46;;;;;;;15.82;1.83;;;8.60;99.90;;;;;;5072543;28;20443;-45
2021/12/01 11:06:19;;;;;;;8.63;2.03;;;8.60;99.90;;;;;;5090286;28;20071;-45
2021/12/01 11:08:58;;;;;;;7.05;1.40;;;8.80;99.90;;;;;;5082952;28;20044;-46
2021/12/01 11:11:36;;;;;;;4.50;0.98;;;8.90;99.90;;;;;;5088662;28;20051;-45
2021/12/01 11:14:13;;;;;;;9.70;1.17;;;8.90;99.90;;;;;;5090744;28;20045;-45
2021/12/01 11:16:40;;;;;;;8.80;1.55;;;8.80;99.90;;;;;;5090177;28;20044;-47
2021/12/01 11:19:07;;;;;;;10.05;2.47;;;8.80;99.90;;;;;;5085334;28;20078;-46
2021/12/01 11:21:33;;;;;;;9.82;1.40;;;8.80;99.90;;;;;;5071874;28;20048;-46
2021/12/01 11:24:05;;;;;;;9.07;1.30;;;8.70;99.90;;;;;;5071598;28;20135;-46
2021/12/01 11:26:33;;;;;;;12.38;1.50;;;8.70;99.90;;;;;;5062635;28;20081;-48
2021/12/01 11:29:12;;;;;;;14.65;1.80;;;8.70;99.90;;;;;;5054193;28;20044;-46
2021/12/01 11:31:41;;;;;;;10.07;1.88;;;8.70;99.90;;;;;;5084753;28;20044;-48
2021/12/01 11:34:11;;;;;;;17.70;2.10;;;8.70;99.90;;;;;;5103661;28;20075;-47
2021/12/01 11:36:42;;;;;;;16.92;1.90;;;8.80;99.90;;;;;;5055212;28;20056;-46
2021/12/01 11:39:12;;;;;;;13.18;2.80;;;8.80;99.90;;;;;;5089720;28;20501;-46
2021/12/01 11:41:42;;;;;;;15.82;2.72;;;8.70;99.90;;;;;;5058904;28;20040;-46
2021/12/01 11:44:10;;;;;;;15.50;2.25;;;8.60;99.90;;;;;;5055082;28;20052;-46
2021/12/01 11:46:36;;;;;;;20.80;2.83;;;8.50;99.90;;;;;;5095983;28;20055;-46
2021/12/01 11:49:11;;;;;;;18.88;3.00;;;8.30;99.90;;;;;;5094712;28;20574;-45
2021/12/01 11:51:44;;;;;;;14.85;2.72;;;8.10;99.90;;;;;;5066276;28;20040;-48
2021/12/01 11:54:18;;;;;;;16.63;3.35;;;8.10;99.90;;;;;;5089544;28;20056;-44
2021/12/01 11:56:55;;;;;;;21.35;3.10;;;7.90;99.90;;;;;;5089524;28;20191;-47
2021/12/01 11:59:24;;;;;;;21.55;3.30;;;7.80;99.90;;;;;;5088310;28;20088;-45
2021/12/01 12:01:54;;;;;;;16.70;2.53;;;7.70;99.90;;;;;;5089498;28;20482;-46
2021/12/01 12:04:21;;;;;;;13.68;2.25;;;7.70;99.90;;;;;;5089216;28;20628;-46
2021/12/01 12:06:57;;;;;;;23.27;2.70;;;7.60;99.90;;;;;;5071478;28;20051;-46
2021/12/01 12:09:23;;;;;;;16.23;2.90;;;7.60;99.90;;;;;;5089225;28;20044;-46
2021/12/01 12:12:00;;;;;;;16.42;3.33;;;7.50;99.90;;;;;;5063642;28;20490;-46
2021/12/01 12:14:38;;;;;;;16.67;3.22;;;7.60;99.90;;;;;;5083821;28;20086;-45
2021/12/01 12:17:06;;;;;;;20.45;3.38;;;7.60;99.90;;;;;;5089552;28;20040;-45
2021/12/01 12:19:54;;;;;;;16.75;3.28;;;7.60;99.90;;;;;;5082936;28;20040;-45
2021/12/01 12:22:48;;;;;;;14.87;3.00;;;7.60;99.90;;;;;;5068588;28;20106;-45
2021/12/01 12:25:36;;;;;;;12.80;2.45;;;7.60;99.90;;;;;;5069914;28;20144;-46
2021/12/01 12:28:19;;;;;;;;;;;7.60;99.90;;;;;;5062625;28;20504;-46
2021/12/01 12:30:45;;;;;;;20.02;2.70;;;7.50;99.90;;;;;;5066648;28;19916;-46
2021/12/01 12:33:16;;;;;;;12.60;2.85;;;7.50;99.90;;;;;;5069884;28;20040;-46
2021/12/01 12:35:45;;;;;;;11.95;3.08;;;7.50;99.90;;;;;;5066685;28;20352;-46
2021/12/01 12:38:14;;;;;;;16.30;2.40;;;7.50;99.90;;;;;;5065662;28;20511;-45
2021/12/01 12:40:40;;;;;;;15.98;2.30;;;7.40;99.90;;;;;;5066568;28;20048;-46
2021/12/01 12:43:10;;;;;;;8.57;1.60;;;7.40;99.90;;;;;;5068495;28;20101;-46
2021/12/01 12:46:00;;;;;;;13.65;2.00;;;7.40;99.90;;;;;;5069010;28;20043;-44
2021/12/01 12:48:38;;;;;;;13.57;1.67;;;7.40;99.90;;;;;;5068570;28;20044;-45
2021/12/01 12:51:18;;;;;;;10.50;1.48;;;7.30;99.90;;;;;;5067216;28;20148;-45
2021/12/01 12:54:04;;;;;;;6.25;2.03;;;7.30;99.90;;;;;;5082245;28;20067;-45
2021/12/01 12:56:37;;;;;;;12.73;1.55;;;7.30;99.90;;;;;;5049871;28;20102;-45
2021/12/01 12:59:21;;;;;;;10.00;1.60;;;7.20;99.90;;;;;;5049186;28;20672;-45
2021/12/01 13:01:53;;;;;;;11.90;1.50;;;7.30;99.90;;;;;;5065665;28;20040;-46
2021/12/01 13:07:35;;;;;;;9.38;1.73;;;7.20;99.90;;;;;;5066009;28;20495;-45